createdAt,value
2023-03-04T00:00:22.155Z,13.57
2023-03-04T00:01:54.261Z,13.88
2023-03-04T00:03:26.151Z,12.85
2023-03-04T00:04:57.964Z,12.82
2023-03-04T00:06:29.737Z,13.27
2023-03-04T00:08:01.512Z,13.48
2023-03-04T00:09:33.239Z,13.05
2023-03-04T00:11:05.173Z,12.05
2023-03-04T00:12:36.911Z,13.00
2023-03-04T00:14:08.645Z,12.25
2023-03-04T00:15:40.370Z,13.52
2023-03-04T00:17:12.163Z,12.00
2023-03-04T00:18:43.904Z,12.13
2023-03-04T00:20:15.820Z,13.60
2023-03-04T00:21:47.568Z,11.75
2023-03-04T00:23:19.363Z,11.68
2023-03-04T00:24:51.065Z,11.48
2023-03-04T00:26:22.910Z,11.45
2023-03-04T00:27:55.134Z,13.00
2023-03-04T00:29:27.326Z,11.95
2023-03-04T00:30:59.056Z,11.85
2023-03-04T00:32:30.825Z,12.10
2023-03-04T00:34:03.062Z,11.05
2023-03-04T00:35:34.923Z,12.35
2023-03-04T00:37:06.721Z,12.13
2023-03-04T00:38:38.570Z,12.77
2023-03-04T00:40:11.229Z,11.65
2023-03-04T00:41:43.038Z,12.30
2023-03-04T00:43:14.745Z,11.98
2023-03-04T00:44:46.511Z,12.82
2023-03-04T00:46:18.316Z,12.65
2023-03-04T00:47:50.103Z,11.38
2023-03-04T00:49:22.097Z,11.50
2023-03-04T00:50:54.134Z,11.90
2023-03-04T00:52:25.995Z,11.63
2023-03-04T00:53:59.709Z,11.40
2023-03-04T00:55:32.535Z,12.13
2023-03-04T00:57:04.422Z,11.35
2023-03-04T00:58:36.495Z,11.25
2023-03-04T01:00:09.140Z,11.77
2023-03-04T01:01:40.942Z,10.50
2023-03-04T01:03:12.884Z,11.32
2023-03-04T01:04:44.907Z,11.07
2023-03-04T01:06:16.818Z,11.35
2023-03-04T01:07:49.621Z,11.80
2023-03-04T01:09:21.371Z,11.25
2023-03-04T01:10:53.174Z,10.60
2023-03-04T01:12:25.009Z,10.10
2023-03-04T01:13:57.028Z,9.98
2023-03-04T01:15:28.995Z,10.32
2023-03-04T01:17:01.114Z,9.98
2023-03-04T01:18:33.360Z,9.35
2023-03-04T01:20:07.273Z,10.38
2023-03-04T01:21:40.590Z,10.40
2023-03-04T01:23:12.365Z,9.95
2023-03-04T01:24:44.568Z,9.75
2023-03-04T01:26:16.278Z,9.93
2023-03-04T01:27:48.042Z,9.07
2023-03-04T01:29:19.762Z,9.23
2023-03-04T01:30:51.525Z,9.13
2023-03-04T01:32:23.364Z,10.20
2023-03-04T01:33:55.125Z,9.30
2023-03-04T01:35:26.920Z,8.90
2023-03-04T01:36:58.657Z,9.18
2023-03-04T01:38:30.479Z,9.00
2023-03-04T01:40:02.430Z,9.15
2023-03-04T01:41:34.343Z,9.95
2023-03-04T01:43:06.098Z,9.75
2023-03-04T01:44:37.837Z,10.13
2023-03-04T01:46:12.929Z,9.40
2023-03-04T01:47:49.207Z,8.85
2023-03-04T01:49:21.801Z,9.27
2023-03-04T01:50:53.575Z,9.25
2023-03-04T01:52:27.878Z,9.57
2023-03-04T01:54:00.047Z,9.23
2023-03-04T01:55:32.272Z,9.88
2023-03-04T01:57:16.591Z,9.80
2023-03-04T01:59:20.249Z,8.93
2023-03-04T02:00:51.955Z,8.98
2023-03-04T02:02:23.713Z,9.57
2023-03-04T02:03:55.458Z,9.80
2023-03-04T02:05:28.429Z,9.27
2023-03-04T02:07:02.467Z,9.48
2023-03-04T02:08:34.986Z,10.32
2023-03-04T02:10:07.304Z,9.95
2023-03-04T02:11:40.419Z,9.60
2023-03-04T02:13:14.361Z,9.40
2023-03-04T02:14:46.105Z,9.80
2023-03-04T02:16:17.852Z,9.60
2023-03-04T02:17:50.401Z,9.00
2023-03-04T02:19:30.844Z,9.63
2023-03-04T02:21:25.892Z,9.32
2023-03-04T02:23:19.467Z,9.85
2023-03-04T02:25:03.512Z,10.07
2023-03-04T02:26:35.705Z,9.85
2023-03-04T02:28:07.562Z,9.63
2023-03-04T02:29:39.984Z,9.77
2023-03-04T02:31:25.625Z,9.80
2023-03-04T02:32:57.554Z,10.52
2023-03-04T02:34:33.165Z,9.90
2023-03-04T02:36:05.210Z,9.40
2023-03-04T02:37:37.157Z,10.07
2023-03-04T02:39:21.016Z,10.32
2023-03-04T02:40:56.603Z,9.68
2023-03-04T02:42:28.364Z,9.95
2023-03-04T02:44:00.200Z,10.20
2023-03-04T02:45:40.163Z,10.07
2023-03-04T02:47:15.259Z,9.82
2023-03-04T02:48:47.033Z,9.25
2023-03-04T02:50:19.169Z,10.02
2023-03-04T02:52:00.597Z,9.68
2023-03-04T02:53:32.493Z,9.77
2023-03-04T02:55:05.398Z,11.00
2023-03-04T02:56:37.140Z,10.55
2023-03-04T02:58:09.389Z,10.40
2023-03-04T02:59:42.327Z,9.93
2023-03-04T03:01:17.507Z,10.10
2023-03-04T03:02:49.862Z,9.50
2023-03-04T03:04:23.912Z,9.30
2023-03-04T03:05:57.764Z,10.00
2023-03-04T03:07:31.228Z,9.75
2023-03-04T03:09:04.073Z,10.15
2023-03-04T03:10:36.403Z,10.10
2023-03-04T03:12:08.777Z,9.98
2023-03-04T03:13:40.569Z,10.52
2023-03-04T03:15:12.762Z,10.65
2023-03-04T03:16:44.565Z,10.05
2023-03-04T03:18:17.263Z,10.85
2023-03-04T03:19:48.993Z,10.18
2023-03-04T03:21:21.193Z,9.63
2023-03-04T03:22:52.963Z,10.77
2023-03-04T03:24:24.692Z,11.32
2023-03-04T03:25:56.466Z,11.07
2023-03-04T03:27:28.217Z,10.45
2023-03-04T03:29:00.192Z,10.00
2023-03-04T03:30:33.258Z,10.60
2023-03-04T03:32:05.316Z,10.10
2023-03-04T03:33:37.469Z,10.20
2023-03-04T03:35:09.664Z,10.05
2023-03-04T03:36:41.374Z,10.38
2023-03-04T03:38:13.329Z,10.10
2023-03-04T03:39:45.051Z,10.65
2023-03-04T03:41:16.765Z,10.30
2023-03-04T03:42:48.488Z,10.27
2023-03-04T03:44:20.295Z,9.98
2023-03-04T03:45:52.229Z,9.02
2023-03-04T03:47:24.522Z,10.15
2023-03-04T03:48:56.272Z,9.48
2023-03-04T03:50:29.493Z,10.10
2023-03-04T03:52:01.261Z,9.98
2023-03-04T03:53:33.001Z,9.60
2023-03-04T03:55:05.119Z,9.77
2023-03-04T03:56:36.846Z,9.95
2023-03-04T03:58:08.576Z,9.45
2023-03-04T03:59:40.378Z,10.18
2023-03-04T04:01:12.081Z,9.98
2023-03-04T04:02:43.906Z,10.13
2023-03-04T04:04:15.895Z,9.00
2023-03-04T04:05:47.768Z,9.90
2023-03-04T04:07:19.536Z,9.70
2023-03-04T04:08:51.345Z,9.38
2023-03-04T04:10:23.353Z,8.90
2023-03-04T04:11:55.379Z,9.13
2023-03-04T04:13:27.104Z,9.35
2023-03-04T04:14:58.838Z,9.55
2023-03-04T04:16:30.879Z,9.50
2023-03-04T04:18:02.938Z,9.38
2023-03-04T04:19:34.760Z,9.77
2023-03-04T04:21:06.883Z,9.80
2023-03-04T04:22:38.635Z,9.52
2023-03-04T04:24:10.560Z,9.10
2023-03-04T04:25:42.261Z,8.88
2023-03-04T04:27:14.035Z,8.98
2023-03-04T04:28:45.760Z,8.90
2023-03-04T04:30:17.884Z,9.55
2023-03-04T04:31:49.908Z,8.75
2023-03-04T04:33:23.408Z,8.95
2023-03-04T04:34:55.252Z,9.18
2023-03-04T04:36:27.400Z,8.77
2023-03-04T04:37:59.161Z,9.15
2023-03-04T04:39:30.933Z,10.05
2023-03-04T04:41:18.682Z,10.30
2023-03-04T04:42:50.432Z,9.63
2023-03-04T04:44:22.149Z,9.60
2023-03-04T04:45:53.902Z,9.07
2023-03-04T04:47:25.699Z,9.10
2023-03-04T04:48:57.500Z,9.10
2023-03-04T04:50:31.853Z,8.30
2023-03-04T04:52:04.774Z,9.15
2023-03-04T04:53:36.822Z,9.43
2023-03-04T04:55:09.127Z,8.60
2023-03-04T04:56:40.885Z,8.93
2023-03-04T04:58:12.593Z,9.07
2023-03-04T04:59:44.347Z,8.82
2023-03-04T05:01:16.833Z,9.77
2023-03-04T05:02:48.597Z,9.02
2023-03-04T05:04:20.322Z,9.25
2023-03-04T05:05:52.062Z,9.27
2023-03-04T05:07:23.810Z,9.95
2023-03-04T05:08:55.574Z,9.95
2023-03-04T05:10:27.303Z,8.98
2023-03-04T05:11:59.134Z,9.10
2023-03-04T05:13:30.871Z,8.50
2023-03-04T05:15:02.979Z,8.52
2023-03-04T05:16:34.827Z,8.57
2023-03-04T05:18:06.981Z,7.97
2023-03-04T05:19:38.732Z,9.07
2023-03-04T05:21:10.476Z,9.27
2023-03-04T05:22:42.202Z,8.93
2023-03-04T05:24:13.933Z,8.20
2023-03-04T05:25:46.206Z,8.45
2023-03-04T05:27:18.164Z,9.00
2023-03-04T05:28:50.090Z,8.55
2023-03-04T05:30:22.026Z,8.82
2023-03-04T05:31:54.216Z,8.35
2023-03-04T05:33:26.190Z,8.30
2023-03-04T05:34:58.124Z,7.80
2023-03-04T05:36:29.831Z,8.60
2023-03-04T05:38:02.232Z,8.30
2023-03-04T05:39:33.983Z,8.85
2023-03-04T05:41:07.499Z,7.93
2023-03-04T05:42:39.193Z,8.95
2023-03-04T05:44:10.921Z,8.43
2023-03-04T05:45:42.926Z,9.13
2023-03-04T05:47:14.709Z,9.07
2023-03-04T05:48:46.429Z,8.38
2023-03-04T05:50:18.700Z,9.02
2023-03-04T05:51:50.419Z,8.52
2023-03-04T05:53:22.629Z,9.05
2023-03-04T05:54:54.354Z,9.15
2023-03-04T05:56:26.097Z,9.73
2023-03-04T05:57:58.387Z,8.68
2023-03-04T05:59:30.122Z,8.25
2023-03-04T06:01:02.920Z,8.48
2023-03-04T06:02:34.807Z,8.57
2023-03-04T06:04:06.833Z,8.52
2023-03-04T06:05:38.698Z,8.02
2023-03-04T06:07:10.393Z,8.75
2023-03-04T06:08:42.130Z,9.43
2023-03-04T06:10:16.330Z,8.38
2023-03-04T06:11:48.171Z,9.40
2023-03-04T06:13:20.176Z,9.18
2023-03-04T06:14:51.943Z,8.40
2023-03-04T06:16:23.689Z,9.88
2023-03-04T06:17:55.634Z,8.55
2023-03-04T06:19:27.366Z,8.93
2023-03-04T06:21:03.403Z,9.20
2023-03-04T06:22:35.627Z,8.27
2023-03-04T06:24:07.490Z,8.43
2023-03-04T06:25:39.357Z,8.52
2023-03-04T06:27:11.225Z,7.85
2023-03-04T06:28:43.737Z,7.95
2023-03-04T06:30:15.571Z,7.60
2023-03-04T06:31:47.310Z,7.25
2023-03-04T06:33:19.623Z,8.40
2023-03-04T06:34:51.356Z,8.43
2023-03-04T06:36:23.212Z,9.10
2023-03-04T06:37:54.893Z,7.90
2023-03-04T06:39:26.625Z,8.45
2023-03-04T06:41:07.116Z,7.65
2023-03-04T06:42:40.305Z,7.90
2023-03-04T06:44:12.086Z,8.15
2023-03-04T06:45:43.945Z,8.82
2023-03-04T06:47:16.707Z,8.73
2023-03-04T06:48:48.478Z,8.45
2023-03-04T06:50:20.410Z,8.07
2023-03-04T06:51:53.101Z,8.23
2023-03-04T06:53:24.841Z,8.30
2023-03-04T06:54:56.582Z,8.75
2023-03-04T06:56:28.353Z,8.32
2023-03-04T06:58:00.139Z,7.95
2023-03-04T06:59:31.908Z,8.70
2023-03-04T07:01:14.787Z,7.95
2023-03-04T07:02:46.541Z,8.63
2023-03-04T07:04:18.309Z,8.07
2023-03-04T07:05:50.074Z,7.75
2023-03-04T07:07:21.978Z,8.60
2023-03-04T07:08:54.252Z,8.45
2023-03-04T07:10:25.974Z,7.85
2023-03-04T07:11:57.878Z,8.57
2023-03-04T07:13:29.593Z,8.30
2023-03-04T07:15:01.350Z,7.45
2023-03-04T07:16:33.781Z,6.80
2023-03-04T07:18:05.598Z,8.15
2023-03-04T07:19:37.568Z,7.60
2023-03-04T07:21:09.642Z,7.40
2023-03-04T07:22:41.384Z,7.75
2023-03-04T07:24:13.265Z,7.70
2023-03-04T07:25:45.079Z,7.68
2023-03-04T07:27:16.902Z,7.65
2023-03-04T07:28:48.852Z,7.50
2023-03-04T07:30:20.771Z,7.68
2023-03-04T07:31:53.837Z,7.50
2023-03-04T07:33:25.831Z,8.02
2023-03-04T07:34:57.753Z,8.00
2023-03-04T07:36:29.799Z,7.97
2023-03-04T07:38:01.511Z,7.40
2023-03-04T07:39:33.256Z,7.25
2023-03-04T07:41:05.162Z,7.32
2023-03-04T07:42:37.401Z,7.90
2023-03-04T07:44:14.566Z,7.28
2023-03-04T07:45:46.372Z,7.13
2023-03-04T07:47:18.109Z,7.57
2023-03-04T07:48:49.909Z,7.20
2023-03-04T07:50:22.594Z,7.15
2023-03-04T07:51:54.288Z,6.85
2023-03-04T07:53:26.083Z,6.75
2023-03-04T07:54:57.978Z,6.43
2023-03-04T07:56:32.332Z,7.65
2023-03-04T07:58:04.077Z,6.60
2023-03-04T07:59:35.950Z,7.03
2023-03-04T08:01:24.105Z,6.28
2023-03-04T08:02:55.821Z,7.10
2023-03-04T08:04:27.539Z,7.47
2023-03-04T08:05:59.288Z,6.97
2023-03-04T08:07:31.013Z,6.90
2023-03-04T08:09:06.537Z,7.28
2023-03-04T08:10:39.907Z,7.30
2023-03-04T08:12:11.642Z,7.18
2023-03-04T08:13:43.556Z,6.95
2023-03-04T08:15:15.384Z,6.65
2023-03-04T08:16:47.132Z,6.45
2023-03-04T08:18:18.840Z,7.13
2023-03-04T08:19:50.634Z,7.30
2023-03-04T08:21:23.842Z,6.38
2023-03-04T08:22:55.556Z,7.15
2023-03-04T08:24:27.901Z,6.18
2023-03-04T08:25:59.636Z,6.57
2023-03-04T08:27:31.360Z,5.70
2023-03-04T08:29:05.249Z,7.03
2023-03-04T08:30:37.018Z,6.20
2023-03-04T08:32:08.789Z,7.25
2023-03-04T08:33:40.797Z,7.38
2023-03-04T08:35:12.554Z,6.50
2023-03-04T08:36:44.480Z,7.25
2023-03-04T08:38:16.227Z,7.15
2023-03-04T08:39:47.946Z,6.80
2023-03-04T08:41:20.476Z,7.53
2023-03-04T08:42:52.947Z,7.28
2023-03-04T08:44:26.723Z,6.90
2023-03-04T08:45:59.485Z,7.13
2023-03-04T08:47:31.186Z,6.63
2023-03-04T08:49:03.538Z,7.22
2023-03-04T08:50:36.029Z,7.13
2023-03-04T08:52:07.980Z,6.68
2023-03-04T08:53:39.883Z,7.50
2023-03-04T08:55:11.651Z,6.38
2023-03-04T08:56:43.547Z,6.63
2023-03-04T08:58:15.300Z,6.38
2023-03-04T08:59:47.028Z,6.75
2023-03-04T09:01:19.187Z,7.18
2023-03-04T09:02:50.894Z,6.00
2023-03-04T09:04:22.602Z,6.60
2023-03-04T09:05:55.018Z,6.40
2023-03-04T09:07:26.822Z,7.10
2023-03-04T09:08:58.532Z,6.90
2023-03-04T09:10:30.247Z,6.60
2023-03-04T09:12:02.503Z,6.72
2023-03-04T09:13:34.531Z,5.90
2023-03-04T09:15:11.489Z,6.15
2023-03-04T09:16:43.787Z,7.28
2023-03-04T09:18:16.961Z,6.30
2023-03-04T09:19:48.696Z,6.13
2023-03-04T09:21:20.427Z,6.07
2023-03-04T09:22:54.845Z,6.55
2023-03-04T09:24:26.649Z,6.85
2023-03-04T09:25:58.381Z,6.47
2023-03-04T09:27:30.114Z,6.65
2023-03-04T09:29:03.820Z,6.75
2023-03-04T09:30:35.869Z,6.22
2023-03-04T09:32:07.639Z,5.90
2023-03-04T09:33:41.615Z,7.07
2023-03-04T09:35:13.438Z,6.18
2023-03-04T09:36:45.217Z,6.97
2023-03-04T09:38:16.949Z,6.13
2023-03-04T09:39:50.130Z,5.82
2023-03-04T09:41:50.272Z,6.25
2023-03-04T09:43:29.550Z,5.43
2023-03-04T09:45:02.748Z,6.47
2023-03-04T09:46:38.961Z,5.43
2023-03-04T09:48:16.231Z,5.82
2023-03-04T09:49:57.601Z,5.80
2023-03-04T09:51:48.070Z,5.63
2023-03-04T09:53:46.329Z,6.03
2023-03-04T09:55:33.139Z,5.82
2023-03-04T09:57:21.588Z,6.25
2023-03-04T09:59:09.312Z,5.28
2023-03-04T10:01:01.039Z,5.80
2023-03-04T10:02:47.394Z,6.40
2023-03-04T10:04:43.281Z,5.75
2023-03-04T10:06:21.385Z,7.30
2023-03-04T10:08:16.331Z,6.18
2023-03-04T10:09:55.232Z,5.53
2023-03-04T10:11:42.751Z,5.20
2023-03-04T10:13:20.984Z,5.18
2023-03-04T10:14:59.057Z,5.30
2023-03-04T10:16:57.776Z,5.18
2023-03-04T10:18:38.961Z,4.75
2023-03-04T10:20:58.316Z,5.30
2023-03-04T10:22:37.215Z,4.95
2023-03-04T10:24:14.763Z,5.50
2023-03-04T10:25:47.100Z,5.13
2023-03-04T10:27:19.969Z,5.18
2023-03-04T10:28:51.720Z,4.88
2023-03-04T10:31:10.951Z,4.97
2023-03-04T10:32:47.591Z,4.88
2023-03-04T10:34:19.315Z,4.45
2023-03-04T10:36:00.329Z,4.30
2023-03-04T10:37:50.820Z,4.22
2023-03-04T10:39:37.545Z,5.03
2023-03-04T10:41:22.660Z,4.85
2023-03-04T10:42:54.459Z,4.95
2023-03-04T10:44:26.872Z,4.40
2023-03-04T10:45:58.895Z,4.18
2023-03-04T10:47:32.849Z,4.80
2023-03-04T10:49:04.596Z,4.13
2023-03-04T10:50:36.359Z,4.40
2023-03-04T10:52:28.854Z,4.28
2023-03-04T10:54:08.156Z,4.30
2023-03-04T10:55:44.882Z,3.92
2023-03-04T10:57:20.515Z,3.63
2023-03-04T10:58:52.251Z,4.45
2023-03-04T11:00:33.576Z,3.72
2023-03-04T11:02:20.531Z,3.85
2023-03-04T11:03:54.220Z,3.20
2023-03-04T11:05:26.098Z,3.67
2023-03-04T11:06:57.882Z,3.95
2023-03-04T11:08:29.587Z,4.00
2023-03-04T11:10:14.805Z,3.70
2023-03-04T11:11:46.798Z,3.65
2023-03-04T11:13:22.149Z,3.42
2023-03-04T11:14:54.129Z,3.65
2023-03-04T11:16:31.964Z,3.92
2023-03-04T11:18:10.489Z,3.75
2023-03-04T11:19:45.870Z,3.47
2023-03-04T11:21:20.494Z,3.58
2023-03-04T11:22:55.449Z,3.38
2023-03-04T11:24:30.842Z,3.17
2023-03-04T11:26:06.514Z,3.53
2023-03-04T11:27:45.917Z,3.58
2023-03-04T11:29:30.793Z,3.85
2023-03-04T11:31:13.149Z,3.30
2023-03-04T11:32:49.926Z,3.42
2023-03-04T11:34:27.540Z,3.10
2023-03-04T11:36:02.625Z,3.03
2023-03-04T11:37:47.968Z,3.15
2023-03-04T11:39:27.619Z,3.50
2023-03-04T11:41:05.399Z,3.85
2023-03-04T11:42:45.993Z,3.50
2023-03-04T11:44:17.780Z,3.42
2023-03-04T11:46:05.812Z,3.45
2023-03-04T11:48:15.096Z,3.15
2023-03-04T11:50:18.024Z,3.42
2023-03-04T11:52:12.737Z,2.72
2023-03-04T11:53:59.141Z,2.80
2023-03-04T11:55:41.074Z,3.20
2023-03-04T11:57:45.621Z,3.22
2023-03-04T11:59:23.229Z,3.17
2023-03-04T12:01:17.231Z,3.17
2023-03-04T12:03:14.998Z,2.97
2023-03-04T12:05:02.663Z,2.72
2023-03-04T12:07:01.313Z,2.70
2023-03-04T12:08:43.413Z,3.17
2023-03-04T12:10:42.097Z,3.00
2023-03-04T12:12:34.820Z,2.63
2023-03-04T12:14:16.489Z,2.42
2023-03-04T12:15:57.067Z,3.10
2023-03-04T12:17:41.120Z,2.57
2023-03-04T12:19:25.065Z,2.88
2023-03-04T12:21:05.032Z,3.03
2023-03-04T12:22:49.094Z,2.50
2023-03-04T12:24:29.479Z,2.83
2023-03-04T12:26:17.026Z,2.92
2023-03-04T12:28:16.186Z,3.22
2023-03-04T12:30:07.669Z,2.92
2023-03-04T12:31:42.498Z,3.15
2023-03-04T12:33:35.787Z,2.58
2023-03-04T12:35:20.579Z,2.47
2023-03-04T12:37:20.299Z,2.28
2023-03-04T12:39:13.382Z,2.72
2023-03-04T12:41:00.102Z,2.55
2023-03-04T12:42:50.973Z,2.40
2023-03-04T12:44:23.274Z,2.42
2023-03-04T12:46:17.065Z,2.42
2023-03-04T12:48:04.021Z,2.72
2023-03-04T12:49:57.118Z,2.25
2023-03-04T12:51:36.224Z,2.50
2023-03-04T12:53:22.851Z,2.28
2023-03-04T12:55:00.337Z,2.63
2023-03-04T12:57:09.336Z,2.20
2023-03-04T12:58:41.620Z,2.05
2023-03-04T13:00:13.293Z,2.47
2023-03-04T13:01:48.881Z,2.20
2023-03-04T13:03:32.847Z,2.28
2023-03-04T13:05:16.051Z,2.30
2023-03-04T13:07:14.775Z,2.30
2023-03-04T13:09:01.395Z,2.33
2023-03-04T13:10:33.179Z,2.03
2023-03-04T13:12:22.615Z,1.98
2023-03-04T13:14:17.465Z,2.30
2023-03-04T13:16:02.745Z,2.17
2023-03-04T13:17:45.897Z,2.35
2023-03-04T13:19:44.100Z,2.22
2023-03-04T13:21:29.242Z,2.13
2023-03-04T13:23:09.819Z,1.80
2023-03-04T13:24:52.338Z,1.92
2023-03-04T13:26:28.489Z,1.98
2023-03-04T13:28:00.502Z,1.80
2023-03-04T13:29:34.870Z,1.75
2023-03-04T13:31:08.194Z,1.80
2023-03-04T13:32:41.643Z,1.80
2023-03-04T13:34:45.200Z,1.63
2023-03-04T13:36:49.640Z,1.77
2023-03-04T13:38:27.019Z,1.75
2023-03-04T13:40:20.582Z,1.48
2023-03-04T13:41:53.992Z,1.60
2023-03-04T13:43:39.713Z,1.67
2023-03-04T13:45:31.669Z,1.50
2023-03-04T13:47:15.697Z,1.20
2023-03-04T13:48:50.261Z,1.20
2023-03-04T13:50:27.227Z,1.25
2023-03-04T13:51:59.515Z,1.30
2023-03-04T13:53:40.827Z,1.27
2023-03-04T13:55:35.166Z,1.40
2023-03-04T13:57:22.370Z,1.10
2023-03-04T13:59:09.344Z,1.00
2023-03-04T14:00:48.617Z,1.10
2023-03-04T14:02:22.873Z,1.10
2023-03-04T14:03:55.601Z,1.30
2023-03-04T14:05:27.491Z,1.10
2023-03-04T14:07:01.908Z,0.95
2023-03-04T14:08:33.681Z,1.30
2023-03-04T14:10:23.809Z,1.48
2023-03-04T14:11:58.995Z,1.08
2023-03-04T14:13:30.889Z,1.50
2023-03-04T14:15:27.469Z,1.38
2023-03-04T14:17:02.985Z,1.30
2023-03-04T14:18:34.933Z,1.40
2023-03-04T14:20:28.304Z,1.30
2023-03-04T14:22:01.069Z,1.50
2023-03-04T14:23:36.161Z,1.50
2023-03-04T14:25:13.813Z,1.17
2023-03-04T14:26:45.661Z,1.50
2023-03-04T14:28:19.878Z,1.80
2023-03-04T14:30:00.343Z,1.70
2023-03-04T14:31:36.092Z,2.03
2023-03-04T14:33:14.042Z,1.60
2023-03-04T14:34:50.254Z,1.80
2023-03-04T14:36:23.653Z,1.50
2023-03-04T14:37:58.364Z,1.70
2023-03-04T14:39:33.229Z,1.40
2023-03-04T14:41:12.824Z,1.13
2023-03-04T14:42:47.090Z,1.60
2023-03-04T14:44:57.147Z,1.20
2023-03-04T14:46:41.681Z,1.33
2023-03-04T14:48:32.605Z,1.40
2023-03-04T14:50:07.508Z,1.40
2023-03-04T14:51:41.774Z,1.20
2023-03-04T14:53:16.803Z,1.40
2023-03-04T14:55:01.525Z,1.63
2023-03-04T14:56:37.170Z,1.55
2023-03-04T14:58:20.181Z,1.60
2023-03-04T14:59:52.804Z,1.42
2023-03-04T15:01:33.616Z,1.30
2023-03-04T15:03:21.822Z,1.02
2023-03-04T15:04:53.929Z,1.50
2023-03-04T15:06:27.945Z,1.98
2023-03-04T15:08:18.869Z,1.65
2023-03-04T15:09:55.689Z,1.27
2023-03-04T15:11:31.817Z,1.10
2023-03-04T15:13:06.832Z,1.38
2023-03-04T15:14:43.886Z,1.42
2023-03-04T15:16:18.649Z,1.70
2023-03-04T15:17:58.504Z,1.30
2023-03-04T15:19:30.259Z,1.33
2023-03-04T15:21:26.222Z,1.10
2023-03-04T15:23:03.516Z,1.25
2023-03-04T15:24:35.260Z,1.30
2023-03-04T15:26:10.701Z,1.40
2023-03-04T15:27:44.893Z,1.48
2023-03-04T15:29:19.629Z,1.08
2023-03-04T15:30:52.091Z,1.25
2023-03-04T15:32:24.187Z,1.35
2023-03-04T15:33:55.899Z,1.77
2023-03-04T15:35:32.020Z,1.38
2023-03-04T15:37:03.811Z,1.38
2023-03-04T15:38:35.581Z,1.23
2023-03-04T15:40:21.058Z,1.40
2023-03-04T15:41:52.836Z,1.15
2023-03-04T15:43:24.768Z,1.60
2023-03-04T15:44:56.457Z,1.70
2023-03-04T15:46:28.225Z,1.20
2023-03-04T15:48:00.037Z,1.17
2023-03-04T15:49:31.813Z,1.23
2023-03-04T15:51:04.089Z,1.30
2023-03-04T15:52:38.184Z,1.40
2023-03-04T15:54:14.476Z,1.35
2023-03-04T15:55:46.955Z,1.73
2023-03-04T15:57:25.857Z,1.60
2023-03-04T15:59:11.899Z,1.50
2023-03-04T16:00:43.919Z,1.75
2023-03-04T16:02:22.145Z,1.30
2023-03-04T16:03:54.061Z,1.20
2023-03-04T16:05:25.949Z,1.13
2023-03-04T16:07:00.111Z,1.15
2023-03-04T16:08:31.818Z,1.10
2023-03-04T16:10:21.706Z,1.77
2023-03-04T16:11:56.499Z,1.52
2023-03-04T16:13:28.572Z,1.27
2023-03-04T16:15:00.289Z,1.10
2023-03-04T16:16:32.031Z,1.60
2023-03-04T16:18:04.265Z,1.20
2023-03-04T16:19:36.218Z,1.30
2023-03-04T16:21:12.975Z,1.15
2023-03-04T16:22:47.075Z,1.35
2023-03-04T16:24:20.027Z,1.35
2023-03-04T16:25:55.416Z,1.05
2023-03-04T16:27:27.140Z,1.25
2023-03-04T16:28:58.925Z,1.13
2023-03-04T16:30:32.004Z,1.35
2023-03-04T16:32:03.921Z,1.40
2023-03-04T16:33:35.872Z,1.40
2023-03-04T16:35:08.386Z,1.23
2023-03-04T16:36:40.300Z,1.65
2023-03-04T16:38:26.195Z,1.67
2023-03-04T16:39:59.768Z,1.73
2023-03-04T16:41:31.515Z,1.90
2023-03-04T16:43:03.939Z,1.80
2023-03-04T16:44:35.655Z,2.20
2023-03-04T16:46:08.320Z,2.20
2023-03-04T16:47:40.105Z,2.50
2023-03-04T16:49:11.831Z,1.88
2023-03-04T16:50:44.224Z,2.17
2023-03-04T16:52:24.593Z,2.28
2023-03-04T16:54:00.352Z,1.70
2023-03-04T16:55:32.571Z,1.67
2023-03-04T16:57:04.509Z,1.70
2023-03-04T16:58:36.249Z,1.48
2023-03-04T17:00:09.069Z,1.75
2023-03-04T17:01:40.887Z,1.98
2023-03-04T17:03:12.703Z,1.80
2023-03-04T17:04:45.389Z,2.13
2023-03-04T17:06:18.129Z,1.92
2023-03-04T17:07:50.205Z,1.83
2023-03-04T17:09:22.031Z,1.90
2023-03-04T17:10:53.883Z,1.95
2023-03-04T17:12:25.645Z,2.00
2023-03-04T17:13:57.395Z,2.30
2023-03-04T17:15:29.177Z,2.42
2023-03-04T17:17:03.067Z,2.10
2023-03-04T17:18:34.893Z,2.72
2023-03-04T17:20:08.959Z,2.95
2023-03-04T17:21:41.016Z,2.58
2023-03-04T17:23:12.772Z,2.42
2023-03-04T17:24:44.494Z,2.17
2023-03-04T17:26:20.956Z,2.53
2023-03-04T17:27:52.792Z,2.45
2023-03-04T17:29:24.540Z,2.15
2023-03-04T17:30:56.694Z,2.28
2023-03-04T17:32:28.647Z,2.40
2023-03-04T17:34:00.473Z,2.22
2023-03-04T17:35:32.294Z,2.90
2023-03-04T17:37:04.157Z,3.10
2023-03-04T17:38:35.868Z,3.13
2023-03-04T17:40:11.305Z,2.97
2023-03-04T17:41:43.040Z,2.17
2023-03-04T17:43:15.134Z,2.10
2023-03-04T17:44:47.221Z,2.42
2023-03-04T17:46:21.945Z,2.20
2023-03-04T17:47:53.695Z,1.60
2023-03-04T17:49:26.302Z,1.98
2023-03-04T17:50:58.698Z,1.95
2023-03-04T17:52:30.453Z,1.70
2023-03-04T17:54:02.856Z,1.75
2023-03-04T17:55:34.614Z,1.70
2023-03-04T17:57:06.667Z,1.70
2023-03-04T17:58:38.863Z,1.98
2023-03-04T18:00:11.516Z,1.70
2023-03-04T18:01:45.304Z,1.73
2023-03-04T18:03:17.533Z,1.60
2023-03-04T18:04:50.516Z,1.80
2023-03-04T18:06:24.266Z,1.70
2023-03-04T18:07:55.973Z,1.52
2023-03-04T18:09:27.687Z,1.70
2023-03-04T18:10:59.526Z,1.48
2023-03-04T18:12:32.417Z,1.70
2023-03-04T18:14:05.635Z,1.80
2023-03-04T18:15:39.514Z,2.00
2023-03-04T18:17:13.012Z,2.03
2023-03-04T18:18:46.757Z,2.58
2023-03-04T18:20:19.288Z,2.28
2023-03-04T18:21:51.105Z,2.53
2023-03-04T18:23:22.923Z,2.40
2023-03-04T18:24:54.672Z,1.95
2023-03-04T18:26:27.238Z,2.88
2023-03-04T18:27:59.044Z,3.00
2023-03-04T18:29:32.224Z,2.40
2023-03-04T18:31:04.240Z,2.25
2023-03-04T18:32:50.800Z,1.88
2023-03-04T18:34:23.497Z,2.03
2023-03-04T18:36:00.222Z,1.90
2023-03-04T18:37:31.899Z,1.95
2023-03-04T18:39:05.660Z,1.42
2023-03-04T18:40:41.872Z,1.77
2023-03-04T18:42:13.786Z,1.75
2023-03-04T18:43:45.715Z,1.50
2023-03-04T18:45:17.678Z,2.10
2023-03-04T18:46:53.573Z,1.77
2023-03-04T18:48:25.369Z,1.83
2023-03-04T18:49:57.180Z,1.90
2023-03-04T18:51:30.275Z,2.33
2023-03-04T18:53:02.562Z,2.08
2023-03-04T18:54:34.498Z,2.38
2023-03-04T18:56:34.612Z,2.20
2023-03-04T18:58:06.517Z,2.15
2023-03-04T18:59:44.581Z,2.10
2023-03-04T19:01:20.593Z,2.17
2023-03-04T19:03:01.169Z,2.05
2023-03-04T19:04:32.962Z,1.85
2023-03-04T19:06:06.363Z,2.58
2023-03-04T19:07:38.359Z,2.55
2023-03-04T19:09:10.251Z,2.83
2023-03-04T19:10:42.209Z,2.50
2023-03-04T19:12:13.904Z,1.95
2023-03-04T19:13:47.628Z,1.92
2023-03-04T19:15:20.218Z,2.38
2023-03-04T19:16:52.213Z,2.22
2023-03-04T19:18:24.871Z,1.83
2023-03-04T19:19:56.608Z,1.98
2023-03-04T19:21:28.554Z,2.45
2023-03-04T19:23:00.683Z,2.20
2023-03-04T19:24:33.479Z,2.17
2023-03-04T19:26:07.194Z,2.08
2023-03-04T19:27:38.948Z,1.88
2023-03-04T19:29:10.672Z,2.28
2023-03-04T19:30:42.560Z,2.35
2023-03-04T19:32:17.447Z,1.45
2023-03-04T19:33:49.621Z,1.77
2023-03-04T19:35:21.639Z,2.10
2023-03-04T19:36:53.426Z,2.28
2023-03-04T19:38:25.183Z,2.00
2023-03-04T19:39:57.043Z,1.42
2023-03-04T19:41:28.767Z,1.58
2023-03-04T19:43:00.716Z,1.65
2023-03-04T19:44:32.522Z,1.60
2023-03-04T19:46:04.480Z,1.90
2023-03-04T19:47:37.432Z,1.85
2023-03-04T19:49:10.160Z,1.50
2023-03-04T19:50:41.839Z,1.80
2023-03-04T19:52:13.608Z,2.67
2023-03-04T19:53:45.565Z,2.05
2023-03-04T19:55:17.415Z,2.30
2023-03-04T19:56:49.266Z,1.80
2023-03-04T19:58:21.557Z,1.55
2023-03-04T19:59:53.408Z,1.52
2023-03-04T20:01:31.500Z,1.80
2023-03-04T20:03:05.095Z,1.50
2023-03-04T20:04:36.859Z,1.50
2023-03-04T20:06:09.029Z,1.55
2023-03-04T20:07:40.817Z,1.27
2023-03-04T20:09:14.862Z,1.50
2023-03-04T20:10:46.725Z,1.33
2023-03-04T20:12:18.438Z,1.50
2023-03-04T20:13:50.245Z,1.15
2023-03-04T20:15:22.183Z,1.25
2023-03-04T20:16:54.226Z,1.27
2023-03-04T20:18:26.166Z,1.50
2023-03-04T20:19:58.243Z,1.80
2023-03-04T20:21:32.351Z,1.70
2023-03-04T20:23:04.374Z,2.28
2023-03-04T20:24:36.592Z,2.05
2023-03-04T20:26:08.480Z,1.63
2023-03-04T20:27:53.867Z,2.20
2023-03-04T20:29:27.050Z,1.70
2023-03-04T20:31:21.417Z,1.50
2023-03-04T20:32:53.148Z,1.70
2023-03-04T20:34:27.134Z,1.70
2023-03-04T20:35:58.877Z,1.52
2023-03-04T20:37:30.650Z,1.88
2023-03-04T20:39:05.428Z,1.90
2023-03-04T20:40:42.552Z,2.45
2023-03-04T20:42:14.314Z,1.70
2023-03-04T20:43:46.083Z,1.52
2023-03-04T20:45:18.111Z,1.77
2023-03-04T20:46:51.429Z,2.08
2023-03-04T20:48:23.332Z,1.48
2023-03-04T20:49:55.152Z,1.77
2023-03-04T20:51:30.261Z,2.03
2023-03-04T20:53:01.999Z,1.60
2023-03-04T20:54:35.274Z,1.67
2023-03-04T20:56:07.134Z,1.50
2023-03-04T20:57:39.694Z,1.70
2023-03-04T20:59:12.650Z,1.48
2023-03-04T21:00:44.896Z,1.95
2023-03-04T21:02:17.433Z,1.60
2023-03-04T21:03:50.049Z,1.50